Decoded METAR Reports


Created by using MetarWeather

Station Name Location Elevation Time Temperature Dew Point RH Heat Index Wind Visibility Pressure Sky Condition Weather Remarks METAR
Alexandroupolis  40.85N 25.92E  3m  22/05/2015 23:50:00  20.0C  16.0C  78%  N/A  6 km/h, NNW (340 degrees)  > 10000m  1011.9 mb  Few clouds at 1100m
 
      LGAL 222050Z 34003KT 9999 FEW035 20/16 Q1012 
Andravida (Civ/A  37.92N 21.27E  12m  23/05/2015 01:20:00  19.0C  15.0C  78%  N/A  Calm  > 10000m  1010.8 mb  Few clouds at 2400m
 
      LGAD 222220Z 00000KT 9999 FEW080 19/15 Q1011 
Araxos (Civ/Afb)  38.17N 21.42E  15m  23/05/2015 00:50:00  20.0C  16.0C  78%  N/A  Calm  > 10000m  1010.8 mb           LGRX 222150Z 00000KT CAVOK 20/16 Q1011 
Athens/Elef-Ven  37.93N 23.95E  94m  23/05/2015 01:20:00  17.0C  12.0C  72%  N/A  4 km/h, NW (310 degrees)  > 10000m  1011.9 mb  Few clouds at 760m
 
      LGAV 222220Z 31002KT 9999 FEW025 17/12 Q1012 NOSIG 
Chios Airport  38.32N 26.12E  4m  22/05/2015 20:50:00  23.0C  15.0C  61%  24.7C  6 km/h, S (190 degrees)  > 10000m  1010.8 mb           LGHI 221750Z 19003KT CAVOK 23/15 Q1011 
Elefsis (Hel-Afb  38.07N 23.55E  31m  23/05/2015 01:20:00  18.0C  10.0C  60%  N/A  Calm  > 10000m  1010.8 mb           LGEL 222220Z 00000KT CAVOK 18/10 Q1011 
Ioannis Kapodist  39.60N 19.92E  2m  23/05/2015 01:20:00  20.0C  18.0C  88%  N/A  11 km/h, WNW (290 degrees)  > 10000m  1010.2 mb  Scattered clouds at 460m
Broken clouds at 610m
 
Light Rain
 
   LGKR 222220Z 29006KT 9999 -RA SCT015 BKN020 20/18 Q1010 NOSIG 
Iraklion (Civ/Af  35.32N 25.17E  39m  23/05/2015 01:20:00  21.0C  17.0C  78%  N/A  6 km/h, Variable  > 10000m  1010.8 mb  Scattered clouds at 2700m
 
      LGIR 222220Z VRB03KT 9999 SCT090 21/17 Q1011 NOSIG 
Kalamata (Hel-Af  37.07N 22.02E  8m  23/05/2015 00:50:00  21.0C  14.0C  64%  N/A  11 km/h, SSE (160 degrees)  > 10000m  1010.8 mb  Few clouds at 2400m
 
      LGKL 222150Z 16006KT 9999 FEW080 21/14 Q1011 
Karpathos  35.42N 27.15E  20m  23/05/2015 01:20:00  N/A  N/A  N/A  N/A  15 km/h, W (280 degrees)    1011.9 mb     Light Rain
 
   LGKP 222220Z AUTO 28008KT //// -RA ////// ///// Q1012 RE// 
Kavala/Chrisoupo  40.92N 24.62E  5m  23/05/2015 00:50:00  21.0C  18.0C  83%  N/A  11 km/h, ESE (110 degrees)  > 10000m  1011.9 mb  Few clouds at 1100m
Broken clouds at 2400m
 
      LGKV 222150Z 11006KT 9999 FEW035 BKN080 21/18 Q1012 
Kefallinia  38.12N 20.50E  18m  23/05/2015 01:20:00  20.0C  20.0C  100%  N/A  17 km/h, NNW (330 degrees)    1010.8 mb     Light Rain
 
   LGKF 222220Z AUTO 33009KT //// -RA ////// 20/20 Q1011 RE// 
Kos Airport  36.80N 27.08E  130m  23/05/2015 01:20:00  19.0C  18.0C  94%  N/A  15 km/h, WNW (290 degrees)  > 10000m  1011.9 mb           LGKO 222220Z 29008KT CAVOK 19/18 Q1012 
Kozani (Civ/Army  40.28N 21.85E  630m  23/05/2015 01:20:00  16.0C  13.0C  82%  N/A  Calm    1011.9 mb           LGKZ 222220Z AUTO 00000KT //// // ////// 16/13 Q1012 RE// 
Limnos Island Ar  39.92N 25.23E  5m  23/05/2015 01:20:00  19.0C  13.0C  68%  N/A  2 km/h, Variable    1011.9 mb           LGLM 222220Z AUTO VRB01KT //// // ////// 19/13 Q1012 RE// 
Mikonos Island  37.43N 25.35E  120m  22/05/2015 21:50:00  22.0C  6.0C  35%  24.8C  4 km/h, Variable  > 10000m  1013.9 mb           LGMK 221850Z VRB02KT CAVOK 22/06 Q1014 
Mitilini  39.05N 26.60E  17m  22/05/2015 22:50:00  21.0C  15.0C  69%  N/A  6 km/h, Variable  > 10000m  1012.9 mb           LGMT 221950Z VRB03KT CAVOK 21/15 Q1013 
Paros  37.00N 25.07E  36m  23/05/2015 01:20:00  19.0C  12.0C  64%  N/A  4 km/h, Variable    1010.8 mb           LGPA 222220Z AUTO VRB02KT //// // ////// 19/12 Q1011 RE// 
Preveza/Aktion  38.62N 20.77E  4m  23/05/2015 00:50:00  20.0C  17.0C  83%  N/A  17 km/h, W (260 degrees)  > 10000m  1011.9 mb  Few clouds at 760m
 
      LGPZ 222150Z 26009KT 9999 FEW025 20/17 Q1012 
Rhodes/Diagoras  36.40N 28.08E  5m  23/05/2015 01:20:00  21.0C  15.0C  69%  N/A  15 km/h, SW (230 degrees)  > 10000m  1010.8 mb           LGRP 222220Z 23008KT CAVOK 21/15 Q1011 NOSIG 
Samos Airport  37.68N 26.92E  6m  22/05/2015 19:50:00  23.0C  17.0C  69%  24.2C  15 km/h, N (360 degrees)  > 10000m  1010.8 mb  Few clouds at 760m
 
      LGSM 221650Z 36008KT 9999 FEW025 23/17 Q1011 
Santorini Island  36.40N 25.48E  40m  23/05/2015 01:20:00  20.0C  14.0C  68%  N/A  Calm    1011.9 mb           LGSR 222220Z AUTO 00000KT //// // ////// 20/14 Q1012 RE// 
Skiathos Island  39.18N 23.50E  15m  22/05/2015 21:50:00  21.0C  14.0C  64%  N/A  7 km/h, SSW (210 degrees)  > 10000m  1011.9 mb  Broken clouds at 760m
Scattered clouds at 2100m
 
      LGSK 221850Z 21004KT 9999 BKN025 SCT070 21/14 Q1012 
Souda/Khania (Af  35.47N 24.12E  150m  23/05/2015 01:20:00  21.0C  13.0C  60%  N/A  30 km/h, SE (130 degrees)  > 10000m  1011.9 mb  Few clouds at 760m
Scattered clouds at 2400m
 
      LGSA 222220Z 13016KT 9999 FEW025 SCT080 21/13 Q1012 
Syros  37.42N 24.95E  72m  23/05/2015 01:20:00  20.0C  15.0C  73%  N/A  6 km/h, Variable    1010.8 mb           LGSO 222220Z AUTO VRB03KT //// // ////// 20/15 Q1011 RE// 
Thessaloniki/Mik  40.52N 22.97E  7m  23/05/2015 01:20:00  19.0C  15.0C  78%  N/A  4 km/h, Variable  > 10000m  1010.8 mb  Few clouds at 1200m
Broken clouds at 2100m
 
      LGTS 222220Z VRB02KT 9999 FEW040 BKN070 19/15 Q1011 NOSIG 
Zakinthos Airpor  37.75N 20.87E  3m  23/05/2015 01:20:00  19.0C  18.0C  94%  N/A  6 km/h, Variable    1010.8 mb           LGZA 222220Z AUTO VRB03KT //// // ////// 19/18 Q1011 RE//